Time;durP1;ratioP1;P1;durP2;ratioP2;P2;SDS_P1;SDS_P2;PMS_P1;PMS_P2;Temp;Humidity;BMP_temperature;BMP_pressure;BME280_temperature;BME280_humidity;BME280_pressure;Samples;Min_cycle;Max_cycle;Signal;HPM_P1;HPM_P2
2022/12/04 00:01:24;;;;;;;29.57;9.47;;;0.70;99.90;;;;;;5095714;28;20043;-80
2022/12/04 00:03:55;;;;;;;29.30;9.40;;;0.40;99.90;;;;;;5096161;28;20096;-80
2022/12/04 00:06:22;;;;;;;31.50;9.53;;;1.70;99.90;;;;;;5091120;28;20457;-80
2022/12/04 00:08:49;;;;;;;27.03;10.17;;;0.40;99.90;;;;;;5079373;28;20387;-80
2022/12/04 00:11:18;;;;;;;25.87;9.33;;;0.40;99.90;;;;;;5079120;28;20096;-80
2022/12/04 00:13:44;;;;;;;26.00;9.77;;;0.40;99.90;;;;;;5095900;28;20039;-80
2022/12/04 00:16:15;;;;;;;21.77;9.80;;;0.40;99.90;;;;;;5078569;28;20038;-80
2022/12/04 00:18:41;;;;;;;21.93;9.30;;;2.10;99.90;;;;;;5078633;28;20047;-80
2022/12/04 00:21:09;;;;;;;25.63;9.80;;;1.40;99.90;;;;;;5111294;27;20099;-84
2022/12/04 00:23:37;;;;;;;25.67;9.47;;;1.70;99.90;;;;;;5085706;28;20579;-84
2022/12/04 00:26:11;;;;;;;24.47;10.20;;;0.40;99.90;;;;;;5099205;28;20043;-84
2022/12/04 00:28:37;;;;;;;22.10;9.33;;;1.70;99.90;;;;;;5098157;28;20044;-84
2022/12/04 00:31:07;;;;;;;25.83;9.67;;;0.40;99.90;;;;;;5067890;28;20552;-85
2022/12/04 00:33:34;;;;;;;24.37;9.23;;;0.50;99.90;;;;;;5089619;28;20043;-85
2022/12/04 00:36:02;;;;;;;21.03;9.00;;;0.40;99.90;;;;;;5079055;28;20043;-84
2022/12/04 00:38:28;;;;;;;21.97;9.30;;;0.50;99.90;;;;;;5079064;28;20137;-80
2022/12/04 00:40:54;;;;;;;22.63;8.67;;;0.40;99.90;;;;;;5078476;28;20075;-80
2022/12/04 00:43:20;;;;;;;22.40;9.03;;;0.90;99.90;;;;;;5062450;28;20104;-80
2022/12/04 00:45:46;;;;;;;26.93;9.40;;;0.40;99.90;;;;;;5096074;28;20108;-80
2022/12/04 00:48:12;;;;;;;23.67;9.80;;;0.40;99.90;;;;;;5062274;28;20476;-80
2022/12/04 00:50:38;;;;;;;19.47;7.73;;;2.00;99.90;;;;;;5059899;28;20052;-80
2022/12/04 00:53:03;;;;;;;23.10;8.80;;;0.40;99.90;;;;;;5092153;28;20043;-80
2022/12/04 00:55:29;;;;;;;21.23;8.40;;;1.30;99.90;;;;;;5075241;28;20472;-80
2022/12/04 00:57:55;;;;;;;20.90;8.50;;;1.70;99.90;;;;;;5092092;28;20043;-80
2022/12/04 01:00:21;;;;;;;20.50;7.80;;;0.40;99.90;;;;;;5058559;28;20092;-80
2022/12/04 01:02:46;;;;;;;22.07;7.30;;;0.50;99.90;;;;;;5069793;28;20100;-80
2022/12/04 01:05:12;;;;;;;19.40;8.67;;;0.50;99.90;;;;;;5095847;28;20040;-80
2022/12/04 01:07:38;;;;;;;19.77;8.97;;;;;;;;;;5095459;28;20054;-80
2022/12/04 01:10:07;;;;;;;24.57;9.03;;;0.50;99.90;;;;;;5112020;28;20089;-81
2022/12/04 01:12:33;;;;;;;20.73;8.37;;;0.40;99.90;;;;;;5085404;28;20044;-81
2022/12/04 01:14:59;;;;;;;17.97;7.20;;;1.90;99.90;;;;;;5096307;28;20051;-81
2022/12/04 01:17:25;;;;;;;24.40;9.03;;;0.40;99.90;;;;;;5061741;28;20046;-81
2022/12/04 01:19:51;;;;;;;24.73;8.63;;;0.40;99.90;;;;;;5078605;28;20043;-81
2022/12/04 01:22:17;;;;;;;19.90;8.50;;;2.00;99.90;;;;;;5097524;28;20437;-81
2022/12/04 01:24:43;;;;;;;23.37;8.70;;;0.40;99.90;;;;;;5081673;28;20043;-81
2022/12/04 01:27:08;;;;;;;23.50;8.10;;;0.40;99.90;;;;;;5082385;28;20059;-81
2022/12/04 01:29:34;;;;;;;22.53;8.63;;;1.80;99.90;;;;;;5082235;28;20042;-80
2022/12/04 01:32:00;;;;;;;22.03;8.43;;;1.80;99.90;;;;;;5082636;28;20039;-80
2022/12/04 01:34:26;;;;;;;20.00;8.23;;;2.20;99.90;;;;;;5064474;28;20458;-80
2022/12/04 01:36:51;;;;;;;25.07;7.93;;;1.80;99.90;;;;;;5099055;28;20043;-80
2022/12/04 01:39:18;;;;;;;23.00;8.47;;;0.40;99.90;;;;;;5065059;28;20130;-80
2022/12/04 01:41:44;;;;;;;22.93;9.53;;;0.40;99.90;;;;;;5081852;28;20039;-80
2022/12/04 01:44:20;;;;;;;21.80;8.40;;;0.40;99.90;;;;;;5109408;28;20036;-81
2022/12/04 01:46:50;;;;;;;21.60;8.63;;;2.30;99.90;;;;;;5095367;28;20658;-81
2022/12/04 01:49:42;;;;;;;27.67;9.87;;;0.30;99.90;;;;;;5095251;28;20085;-81
2022/12/04 01:52:20;;;;;;;24.90;9.13;;;0.30;99.90;;;;;;5101739;28;20092;-81
2022/12/04 01:54:49;;;;;;;24.90;8.70;;;0.60;99.90;;;;;;5081829;28;20044;-81
2022/12/04 01:57:22;;;;;;;23.67;9.13;;;2.30;99.90;;;;;;5098686;28;20047;-81
2022/12/04 02:00:06;;;;;;;21.27;8.20;;;0.30;99.90;;;;;;5081793;28;20039;-81
2022/12/04 02:02:35;;;;;;;26.57;9.50;;;1.90;99.90;;;;;;5081521;28;20043;-80
2022/12/04 02:05:03;;;;;;;19.07;8.00;;;0.80;99.90;;;;;;5081636;28;20039;-80
2022/12/04 02:07:29;;;;;;;20.30;7.73;;;0.90;99.90;;;;;;5116481;28;20126;-80
2022/12/04 02:09:55;;;;;;;19.50;8.40;;;2.20;99.90;;;;;;5081724;28;20143;-80
2022/12/04 02:12:31;;;;;;;22.73;9.60;;;1.40;99.90;;;;;;5049066;28;20043;-80
2022/12/04 02:15:00;;;;;;;;;;;0.20;99.90;;;;;;5098564;28;20040;-80
2022/12/04 02:18:10;;;;;;;24.03;8.13;;;0.20;99.90;;;;;;5098598;28;20316;-81
2022/12/04 02:20:44;;;;;;;22.03;8.00;;;0.20;99.90;;;;;;5072570;28;20569;-81
2022/12/04 02:23:34;;;;;;;24.43;9.23;;;0.10;99.90;;;;;;5098218;28;20069;-81
2022/12/04 02:26:27;;;;;;;21.47;8.67;;;0.10;99.90;;;;;;5081348;28;20126;-81
2022/12/04 02:28:59;;;;;;;20.97;9.37;;;0.20;99.90;;;;;;5081991;28;20039;-81
2022/12/04 02:31:43;;;;;;;25.10;10.23;;;0.10;99.90;;;;;;5078291;28;20036;-81
2022/12/04 02:34:25;;;;;;;22.87;8.73;;;0.10;99.90;;;;;;5078176;28;20044;-81
2022/12/04 02:37:14;;;;;;;23.10;9.73;;;0.10;99.90;;;;;;5110169;28;20039;-81
2022/12/04 02:39:54;;;;;;;26.30;9.93;;;0.00;99.90;;;;;;5080948;28;20533;-81
2022/12/04 02:42:39;;;;;;;20.73;9.43;;;0.20;99.90;;;;;;5097856;28;20040;-81
2022/12/04 02:45:10;;;;;;;22.43;10.33;;;0.00;99.90;;;;;;5097838;28;20039;-81
2022/12/04 02:47:38;;;;;;;30.47;10.43;;;0.00;99.90;;;;;;5098066;28;20526;-81
2022/12/04 02:50:08;;;;;;;25.20;9.70;;;0.00;99.90;;;;;;5077107;28;20138;-85
2022/12/04 02:52:42;;;;;;;27.23;9.20;;;0.00;99.90;;;;;;5094553;28;20136;-85
2022/12/04 02:55:15;;;;;;;28.73;10.17;;;0.00;99.90;;;;;;5094284;28;20503;-85
2022/12/04 02:57:45;;;;;;;26.13;10.20;;;1.00;99.90;;;;;;5093837;28;20051;-84
2022/12/04 03:00:12;;;;;;;28.97;10.50;;;1.90;99.90;;;;;;5077165;28;20048;-84
2022/12/04 03:06:04;;;;;;;26.97;10.30;;;0.00;99.90;;;;;;5080240;28;20152;-81
2022/12/04 03:08:44;;;;;;;28.77;10.83;;;0.00;99.90;;;;;;5089304;28;20047;-85
2022/12/04 03:11:10;;;;;;;27.07;11.13;;;;;;;;;;5088239;28;20032;-85
2022/12/04 03:13:52;;;;;;;27.63;10.57;;;0.00;99.90;;;;;;5061447;28;20143;-85
2022/12/04 03:16:26;;;;;;;32.37;12.37;;;0.70;99.90;;;;;;5075290;28;20123;-85
2022/12/04 03:19:02;;;;;;;24.20;9.93;;;0.10;99.90;;;;;;5070770;28;20103;-85
2022/12/04 03:21:32;;;;;;;30.98;11.65;;;1.80;99.90;;;;;;5093543;28;20093;-85
2022/12/04 03:24:18;;;;;;;28.20;11.43;;;1.90;99.90;;;;;;5095885;28;20054;-80
2022/12/04 03:26:55;;;;;;;28.97;9.80;;;0.00;99.90;;;;;;5093043;28;20043;-80
2022/12/04 03:29:35;;;;;;;32.50;11.33;;;0.30;99.90;;;;;;5069893;28;20082;-80
2022/12/04 03:32:40;;;;;;;29.00;11.53;;;0.00;99.90;;;;;;5093193;28;20054;-80
2022/12/04 03:35:46;;;;;;;33.13;12.37;;;0.00;99.90;;;;;;5078929;28;20048;-80
2022/12/04 03:38:18;;;;;;;28.63;10.67;;;0.00;99.90;;;;;;5095160;28;20075;-80
2022/12/04 03:40:58;;;;;;;24.03;10.17;;;0.00;99.90;;;;;;5077015;28;20028;-80
2022/12/04 03:43:34;;;;;;;34.23;13.33;;;0.10;99.90;;;;;;5048563;28;20404;-80
2022/12/04 03:46:07;;;;;;;33.90;12.50;;;0.00;99.90;;;;;;5057585;28;20051;-80
2022/12/04 03:49:17;;;;;;;27.60;11.27;;;-0.10;99.90;;;;;;5057473;28;20074;-80
2022/12/04 03:51:57;;;;;;;38.60;13.30;;;-0.10;99.90;;;;;;5020551;28;20051;-80
2022/12/04 03:54:31;;;;;;;25.73;10.70;;;-0.10;99.90;;;;;;5078043;28;20039;-80
2022/12/04 03:57:11;;;;;;;30.07;12.43;;;-0.60;99.90;;;;;;5078185;28;20062;-80
2022/12/04 03:59:48;;;;;;;33.77;12.53;;;-0.10;99.90;;;;;;5093433;28;20387;-80
2022/12/04 04:02:18;;;;;;;33.63;13.30;;;-0.10;99.90;;;;;;5088065;28;20074;-80
2022/12/04 04:04:50;;;;;;;27.43;10.47;;;-0.10;99.90;;;;;;5057014;28;20129;-80
2022/12/04 04:07:29;;;;;;;32.77;12.13;;;0.00;99.90;;;;;;5058185;28;20084;-80
2022/12/04 04:10:01;;;;;;;27.73;10.80;;;0.20;99.90;;;;;;5057997;28;20040;-80
2022/12/04 04:12:34;;;;;;;29.40;10.87;;;1.30;99.90;;;;;;5076914;28;20047;-81
2022/12/04 04:26:25;;;;;;;39.30;13.73;;;-0.10;99.90;;;;;;5075774;28;20050;-80
2022/12/04 04:28:51;;;;;;;38.77;13.93;;;-0.10;99.90;;;;;;5059729;28;20032;-80
2022/12/04 04:31:35;;;;;;;36.50;12.93;;;0.30;99.90;;;;;;5075580;28;20043;-80
2022/12/04 04:34:23;;;;;;;35.20;12.80;;;-0.10;99.90;;;;;;5049831;28;20045;-80
2022/12/04 04:37:22;;;;;;;42.40;14.63;;;-0.10;99.90;;;;;;5089307;28;20050;-80
2022/12/04 04:39:55;;;;;;;32.27;12.93;;;-0.10;99.90;;;;;;5096173;28;20118;-79
2022/12/04 04:42:27;;;;;;;35.47;12.67;;;-0.10;99.90;;;;;;5113872;28;20040;-80
2022/12/04 04:44:58;;;;;;;26.87;11.90;;;-0.20;99.90;;;;;;5071830;28;20058;-80
2022/12/04 04:47:51;;;;;;;36.17;12.57;;;-0.10;99.90;;;;;;5096019;28;20048;-81
2022/12/04 04:50:18;;;;;;;33.43;11.90;;;-0.10;99.90;;;;;;5095896;28;20043;-81
2022/12/04 04:52:49;;;;;;;36.97;14.43;;;-0.10;99.90;;;;;;5095855;28;20118;-81
2022/12/04 04:55:16;;;;;;;33.83;14.00;;;-0.10;99.90;;;;;;5095620;28;20039;-81
2022/12/04 04:57:42;;;;;;;32.83;12.00;;;-0.20;99.90;;;;;;5070797;28;20177;-81
2022/12/04 05:00:15;;;;;;;39.53;14.10;;;0.20;99.90;;;;;;5080156;28;20122;-81
2022/12/04 05:02:41;;;;;;;29.40;11.60;;;-0.10;99.90;;;;;;5096493;28;20036;-81
2022/12/04 05:05:08;;;;;;;36.13;12.77;;;-0.20;99.90;;;;;;5075363;28;20510;-85
2022/12/04 05:07:34;;;;;;;35.43;12.83;;;-0.20;99.90;;;;;;5059121;28;20040;-85
2022/12/04 05:09:59;;;;;;;34.27;13.00;;;-0.20;99.90;;;;;;5059034;28;20047;-85
2022/12/04 05:12:25;;;;;;;39.43;14.53;;;-0.20;99.90;;;;;;5042402;28;20040;-85
2022/12/04 05:14:51;;;;;;;36.30;13.37;;;0.30;99.90;;;;;;5026173;28;20040;-85
2022/12/04 05:17:17;;;;;;;34.73;14.00;;;1.40;99.90;;;;;;5058966;28;20047;-84
2022/12/04 05:19:57;;;;;;;31.57;12.57;;;-0.30;99.90;;;;;;5042492;28;20044;-80
2022/12/04 05:22:30;;;;;;;35.23;13.03;;;1.00;99.90;;;;;;5058587;28;20123;-80
2022/12/04 05:24:57;;;;;;;33.40;12.40;;;-0.20;99.90;;;;;;5057362;28;20051;-80
2022/12/04 05:27:23;;;;;;;36.13;12.63;;;-0.30;99.90;;;;;;5060665;28;20079;-80
2022/12/04 05:29:52;;;;;;;38.23;14.53;;;-0.30;99.90;;;;;;5058532;28;20040;-80
2022/12/04 05:32:18;;;;;;;37.17;14.47;;;0.20;99.90;;;;;;5075312;28;20467;-80
2022/12/04 05:34:47;;;;;;;31.03;12.30;;;-0.30;99.90;;;;;;5075845;28;20101;-80
2022/12/04 05:37:16;;;;;;;39.03;14.17;;;1.50;99.90;;;;;;5078282;28;20487;-85
2022/12/04 05:39:42;;;;;;;34.57;13.97;;;1.20;99.90;;;;;;5061769;28;20097;-85
2022/12/04 05:42:08;;;;;;;31.53;12.63;;;-0.20;99.90;;;;;;5078284;28;20071;-85
2022/12/04 05:44:34;;;;;;;36.47;13.23;;;-0.20;99.90;;;;;;5078283;28;20043;-85
2022/12/04 05:47:00;;;;;;;39.33;12.93;;;0.70;99.90;;;;;;5078271;28;20044;-85
2022/12/04 05:49:32;;;;;;;34.73;13.27;;;0.60;99.90;;;;;;5078434;28;20044;-85
2022/12/04 05:51:58;;;;;;;32.37;13.63;;;-0.20;99.90;;;;;;5040048;28;20410;-85
2022/12/04 05:54:24;;;;;;;39.23;13.20;;;0.50;99.90;;;;;;5055224;28;20040;-82
2022/12/04 05:56:50;;;;;;;37.37;13.00;;;-0.10;99.90;;;;;;5055163;28;20094;-82
2022/12/04 05:59:16;;;;;;;34.90;13.03;;;-0.20;99.90;;;;;;5055477;28;20037;-82
2022/12/04 06:01:43;;;;;;;41.67;13.20;;;0.90;99.90;;;;;;5055450;28;20070;-82
2022/12/04 06:04:09;;;;;;;37.57;15.27;;;-0.20;99.90;;;;;;5054778;28;20106;-82
2022/12/04 06:06:35;;;;;;;38.00;13.77;;;0.30;99.90;;;;;;5032575;28;20044;-81
2022/12/04 06:09:02;;;;;;;33.83;13.43;;;1.40;99.90;;;;;;5077674;28;20125;-81
2022/12/04 06:11:31;;;;;;;38.73;12.87;;;-0.20;99.90;;;;;;5061649;28;20039;-80
2022/12/04 06:13:58;;;;;;;40.47;14.20;;;1.80;99.90;;;;;;5096293;28;20075;-80
2022/12/04 06:16:27;;;;;;;36.13;13.43;;;1.70;99.90;;;;;;5085863;28;20040;-80
2022/12/04 06:18:55;;;;;;;35.13;12.03;;;-0.20;99.90;;;;;;5095080;28;20056;-80
2022/12/04 06:21:23;;;;;;;36.53;13.10;;;1.30;99.90;;;;;;5095350;28;20367;-80
2022/12/04 06:23:50;;;;;;;36.20;14.50;;;1.70;99.90;;;;;;5061503;28;20410;-80
2022/12/04 06:26:16;;;;;;;43.80;15.30;;;-0.20;99.90;;;;;;5077510;28;20052;-80
2022/12/04 06:28:42;;;;;;;39.33;13.30;;;-0.30;99.90;;;;;;5078150;28;20044;-80
2022/12/04 06:31:11;;;;;;;34.93;12.63;;;0.40;99.90;;;;;;5094635;28;20032;-80
2022/12/04 06:33:38;;;;;;;33.53;13.47;;;2.10;99.90;;;;;;5094737;28;20072;-80
2022/12/04 06:36:07;;;;;;;37.03;14.47;;;0.60;99.90;;;;;;5094613;28;20537;-80
2022/12/04 06:38:33;;;;;;;34.73;12.30;;;-0.20;99.90;;;;;;5077994;28;20092;-80
2022/12/04 06:41:03;;;;;;;38.33;12.17;;;1.20;99.90;;;;;;5078375;28;20035;-80
2022/12/04 06:43:29;;;;;;;33.80;13.90;;;-0.30;99.90;;;;;;5078702;28;20044;-85
2022/12/04 06:46:10;;;;;;;32.47;12.33;;;-0.20;99.90;;;;;;5077224;28;20044;-85
2022/12/04 06:48:35;;;;;;;32.27;13.53;;;-0.20;99.90;;;;;;5086564;28;20029;-85
2022/12/04 06:51:12;;;;;;;38.70;15.03;;;-0.10;99.90;;;;;;5037503;28;20098;-85
2022/12/04 06:53:38;;;;;;;34.13;12.17;;;1.60;99.90;;;;;;5090125;28;20028;-85
2022/12/04 06:56:07;;;;;;;29.83;11.50;;;-0.20;99.90;;;;;;5057371;28;20044;-85
2022/12/04 06:58:33;;;;;;;33.97;14.00;;;-0.10;99.90;;;;;;5057170;28;20051;-85
2022/12/04 07:00:59;;;;;;;35.90;12.03;;;0.50;99.90;;;;;;5084739;28;20040;-82
2022/12/04 07:03:25;;;;;;;36.60;13.30;;;;;;;;;;5096006;28;20040;-82
2022/12/04 07:05:51;;;;;;;35.43;13.80;;;-0.10;99.90;;;;;;5097037;28;20055;-81
2022/12/04 07:08:17;;;;;;;34.90;13.33;;;1.60;99.90;;;;;;5059158;28;20041;-81
2022/12/04 07:10:43;;;;;;;31.50;12.53;;;0.00;99.90;;;;;;5074107;28;20514;-81
2022/12/04 07:13:09;;;;;;;32.63;10.77;;;1.70;99.90;;;;;;5040158;28;20036;-81
2022/12/04 07:15:37;;;;;;;34.10;13.40;;;1.20;99.90;;;;;;5040437;28;20559;-81
2022/12/04 07:18:03;;;;;;;31.73;13.27;;;1.10;99.90;;;;;;5040117;28;20075;-85
2022/12/04 07:20:30;;;;;;;35.77;13.67;;;-0.10;99.90;;;;;;5075934;28;20044;-85
2022/12/04 07:22:55;;;;;;;32.00;11.57;;;1.50;99.90;;;;;;5060171;28;20097;-85
2022/12/04 07:25:21;;;;;;;32.70;12.67;;;1.70;99.90;;;;;;5059834;28;20044;-85
2022/12/04 07:27:47;;;;;;;32.17;11.60;;;-0.10;99.90;;;;;;5043220;28;20388;-85
2022/12/04 07:30:13;;;;;;;32.07;11.50;;;0.00;99.90;;;;;;5026856;28;20093;-85
2022/12/04 07:32:39;;;;;;;35.97;12.30;;;0.00;99.90;;;;;;5076311;28;20491;-85
2022/12/04 07:35:05;;;;;;;35.10;12.30;;;1.10;99.90;;;;;;5059527;28;20070;-80
2022/12/04 07:37:34;;;;;;;30.57;11.13;;;0.00;99.90;;;;;;5094679;28;20173;-80
2022/12/04 07:39:59;;;;;;;30.97;12.07;;;2.20;99.90;;;;;;5076535;28;20051;-80
2022/12/04 07:42:26;;;;;;;31.60;12.87;;;-0.10;99.90;;;;;;5076697;28;20048;-80
2022/12/04 07:44:52;;;;;;;32.73;12.90;;;0.00;99.90;;;;;;5076149;28;20495;-80
2022/12/04 07:47:18;;;;;;;26.63;11.03;;;1.10;99.90;;;;;;5060003;28;20052;-80
2022/12/04 07:49:44;;;;;;;32.93;12.37;;;0.00;99.90;;;;;;5060424;28;20044;-81
2022/12/04 07:52:09;;;;;;;39.90;13.40;;;0.00;99.90;;;;;;5076717;28;20239;-81
2022/12/04 07:54:35;;;;;;;40.57;12.97;;;1.30;99.90;;;;;;5042578;28;20402;-82
2022/12/04 07:57:01;;;;;;;32.83;12.40;;;1.80;99.90;;;;;;5076038;28;20101;-81
2022/12/04 07:59:27;;;;;;;31.83;12.13;;;0.10;99.90;;;;;;5042997;28;20043;-81
2022/12/04 08:01:52;;;;;;;34.70;12.50;;;1.00;99.90;;;;;;5042764;28;20407;-82
2022/12/04 08:04:18;;;;;;;40.23;14.30;;;0.10;99.90;;;;;;5039129;28;20052;-82
2022/12/04 08:06:44;;;;;;;35.80;12.20;;;0.00;99.90;;;;;;5039233;28;20045;-85
2022/12/04 08:09:10;;;;;;;36.03;13.60;;;0.10;99.90;;;;;;5039266;28;20050;-85
2022/12/04 08:11:36;;;;;;;32.47;13.10;;;2.20;99.90;;;;;;5039404;28;20032;-85
2022/12/04 08:14:04;;;;;;;32.60;12.93;;;0.10;99.90;;;;;;5055939;28;20032;-85
2022/12/04 08:16:32;;;;;;;38.77;12.93;;;0.10;99.90;;;;;;5062345;28;20043;-85
2022/12/04 08:18:59;;;;;;;28.47;11.10;;;0.60;99.90;;;;;;5066751;28;20496;-85
2022/12/04 08:21:27;;;;;;;34.43;12.60;;;0.10;99.90;;;;;;5062431;28;20044;-85
2022/12/04 08:23:55;;;;;;;39.87;13.87;;;0.10;99.90;;;;;;5075771;28;20044;-81
2022/12/04 08:26:22;;;;;;;38.37;13.43;;;0.40;99.90;;;;;;5090025;28;20047;-81
2022/12/04 08:28:51;;;;;;;32.57;11.73;;;0.20;99.90;;;;;;5083046;28;20043;-80
2022/12/04 08:31:20;;;;;;;35.13;12.07;;;1.50;99.90;;;;;;5060824;28;20036;-80
2022/12/04 08:33:47;;;;;;;37.33;13.03;;;0.20;99.90;;;;;;5075441;28;20082;-80
2022/12/04 08:36:15;;;;;;;33.37;11.47;;;0.20;99.90;;;;;;5062462;28;20036;-80
2022/12/04 08:38:42;;;;;;;34.23;13.37;;;0.30;99.90;;;;;;5059347;28;20058;-81
2022/12/04 08:41:11;;;;;;;32.10;11.63;;;0.20;99.90;;;;;;5075353;28;20047;-81
2022/12/04 08:43:37;;;;;;;28.13;12.13;;;0.20;99.90;;;;;;5087499;28;20399;-81
2022/12/04 08:46:09;;;;;;;33.97;12.43;;;0.20;99.90;;;;;;5082753;28;20039;-81
2022/12/04 08:48:35;;;;;;;35.13;12.80;;;0.20;99.90;;;;;;5072706;28;20040;-81
2022/12/04 08:51:03;;;;;;;32.93;14.00;;;0.30;99.90;;;;;;5053822;28;20047;-81
2022/12/04 08:53:29;;;;;;;33.23;13.23;;;1.20;99.90;;;;;;5083092;28;20035;-81
2022/12/04 08:55:55;;;;;;;31.73;11.80;;;0.30;99.90;;;;;;5078613;28;20488;-81
2022/12/04 08:58:22;;;;;;;32.00;11.70;;;0.30;99.90;;;;;;5076704;28;20043;-80
2022/12/04 09:00:48;;;;;;;35.10;12.33;;;0.30;99.90;;;;;;5075693;28;20044;-80
2022/12/04 09:03:19;;;;;;;35.00;13.40;;;0.40;99.90;;;;;;5038346;28;20039;-80
2022/12/04 09:05:45;;;;;;;30.20;11.47;;;0.40;99.90;;;;;;5069222;28;20055;-80
2022/12/04 09:08:12;;;;;;;37.97;13.23;;;0.40;99.90;;;;;;5058479;28;20052;-80
2022/12/04 09:10:38;;;;;;;29.43;11.67;;;0.90;99.90;;;;;;5058225;28;20035;-80
2022/12/04 09:13:04;;;;;;;33.03;12.40;;;0.40;99.90;;;;;;5075350;28;20032;-80
2022/12/04 09:15:30;;;;;;;32.33;12.33;;;0.50;99.90;;;;;;5049015;28;20040;-84
2022/12/04 09:17:56;;;;;;;33.83;12.83;;;1.10;99.90;;;;;;5063283;28;20035;-84
2022/12/04 09:20:22;;;;;;;33.10;12.50;;;0.70;99.90;;;;;;5095221;28;20558;-84
2022/12/04 09:22:48;;;;;;;28.90;12.33;;;2.20;99.90;;;;;;5078329;28;20054;-84
2022/12/04 09:25:14;;;;;;;35.07;13.00;;;1.60;99.90;;;;;;5078628;28;20044;-84
2022/12/04 09:27:43;;;;;;;35.43;13.47;;;0.60;99.90;;;;;;5094899;28;20545;-84
2022/12/04 09:30:11;;;;;;;31.30;12.17;;;0.60;99.90;;;;;;5064349;28;20039;-84
2022/12/04 09:32:36;;;;;;;33.53;12.97;;;0.70;99.90;;;;;;5078686;28;20398;-84
2022/12/04 09:35:03;;;;;;;28.60;11.30;;;1.50;99.90;;;;;;5095472;28;20043;-84
2022/12/04 09:37:29;;;;;;;28.70;11.53;;;0.70;99.90;;;;;;5078245;28;20053;-84
2022/12/04 09:39:55;;;;;;;33.50;13.07;;;0.80;99.90;;;;;;5039068;28;20124;-84
2022/12/04 09:42:44;;;;;;;31.03;11.70;;;0.80;99.90;;;;;;5080146;28;20584;-84
2022/12/04 09:45:20;;;;;;;34.70;12.10;;;0.80;99.90;;;;;;5056169;28;20040;-84
2022/12/04 09:47:48;;;;;;;;;;;0.90;99.90;;;;;;5064588;28;20483;-85
2022/12/04 09:50:17;;;;;;;33.03;12.47;;;0.90;99.90;;;;;;5094284;28;19915;-84
2022/12/04 09:52:48;;;;;;;30.23;11.17;;;1.10;99.90;;;;;;5073902;28;20115;-85
2022/12/04 09:55:40;;;;;;;30.83;12.40;;;1.00;99.90;;;;;;5063164;28;20088;-84
2022/12/04 09:58:12;;;;;;;33.83;12.43;;;1.00;99.90;;;;;;5088725;28;20043;-83
2022/12/04 10:00:41;;;;;;;28.00;12.53;;;1.00;99.90;;;;;;5083345;28;20070;-84
2022/12/04 10:03:14;;;;;;;28.87;11.67;;;1.00;99.90;;;;;;5078518;28;20126;-80
2022/12/04 10:06:05;;;;;;;28.17;12.37;;;1.10;99.90;;;;;;5098213;28;20052;-81
2022/12/04 10:08:35;;;;;;;32.80;11.67;;;1.10;99.90;;;;;;5087871;28;20118;-80
2022/12/04 10:11:09;;;;;;;29.97;11.80;;;1.60;99.90;;;;;;5086256;28;20036;-80
2022/12/04 10:13:56;;;;;;;33.10;12.30;;;1.20;99.90;;;;;;5061549;28;20483;-81
2022/12/04 10:16:44;;;;;;;33.13;12.80;;;1.30;99.90;;;;;;5086840;28;20067;-81
2022/12/04 10:19:35;;;;;;;27.63;11.30;;;1.30;99.90;;;;;;5059266;28;20402;-81
2022/12/04 10:22:01;;;;;;;28.87;11.27;;;1.30;99.90;;;;;;5077819;28;20040;-81
2022/12/04 10:24:44;;;;;;;28.83;11.43;;;1.40;99.90;;;;;;5077693;28;20066;-81
2022/12/04 10:27:23;;;;;;;28.93;11.93;;;1.40;99.90;;;;;;5077780;28;20044;-80
2022/12/04 10:29:54;;;;;;;24.50;10.20;;;1.40;99.90;;;;;;5077864;28;20055;-81
2022/12/04 10:32:31;;;;;;;32.20;12.33;;;1.50;99.90;;;;;;5058889;28;20138;-81
2022/12/04 10:35:22;;;;;;;25.83;11.70;;;1.90;99.90;;;;;;5040902;28;20036;-81
2022/12/04 10:38:02;;;;;;;28.43;10.43;;;1.60;99.90;;;;;;5043294;28;20233;-80
2022/12/04 10:40:37;;;;;;;24.77;10.23;;;1.60;99.90;;;;;;5057656;28;20133;-80
2022/12/04 10:43:29;;;;;;;25.90;10.83;;;2.20;99.90;;;;;;5067541;28;20483;-80
2022/12/04 10:45:55;;;;;;;23.85;11.15;;;1.50;99.90;;;;;;5077284;28;20036;-80
2022/12/04 10:48:31;;;;;;;24.23;10.13;;;1.80;99.90;;;;;;5060765;28;20077;-80
2022/12/04 10:50:57;;;;;;;;;;;1.80;99.90;;;;;;5077704;28;20044;-80
2022/12/04 10:53:30;;;;;;;17.93;8.57;;;1.90;99.90;;;;;;5078698;28;19923;-84
2022/12/04 10:56:10;;;;;;;20.80;8.90;;;1.90;99.90;;;;;;5093021;28;20036;-84
2022/12/04 10:58:36;;;;;;;19.43;9.20;;;1.90;99.90;;;;;;5072795;28;20389;-84
2022/12/04 11:01:05;;;;;;;21.67;8.33;;;2.40;99.90;;;;;;5081365;28;20051;-84
2022/12/04 11:03:31;;;;;;;20.90;9.40;;;2.00;99.90;;;;;;5092243;23;20040;-82
2022/12/04 11:06:04;;;;;;;18.57;9.07;;;2.00;99.90;;;;;;5092686;28;20048;-82
2022/12/04 11:08:51;;;;;;;24.45;9.82;;;2.10;99.90;;;;;;5091238;28;20117;-82
2022/12/04 11:11:26;;;;;;;21.97;9.63;;;2.10;99.90;;;;;;5089699;28;20063;-80
2022/12/04 11:14:15;;;;;;;19.10;7.87;;;2.10;99.90;;;;;;5094086;28;20044;-81
2022/12/04 11:16:43;;;;;;;22.27;9.03;;;2.20;99.90;;;;;;5098269;28;20042;-84
2022/12/04 11:19:31;;;;;;;20.20;8.40;;;2.20;99.90;;;;;;5093465;28;20438;-84
2022/12/04 11:22:14;;;;;;;22.63;8.63;;;2.20;99.90;;;;;;5073088;28;20499;-85
2022/12/04 11:24:41;;;;;;;20.20;7.83;;;2.20;99.90;;;;;;5056292;28;20036;-84
2022/12/04 11:27:18;;;;;;;21.17;9.23;;;2.20;99.90;;;;;;5073338;28;20399;-81
2022/12/04 11:29:45;;;;;;;20.73;8.93;;;2.20;99.90;;;;;;5090100;28;20052;-81
2022/12/04 11:32:25;;;;;;;18.07;8.17;;;2.20;99.90;;;;;;5078911;28;20059;-81
2022/12/04 11:34:54;;;;;;;19.97;8.40;;;2.20;99.90;;;;;;5093530;28;20043;-81
2022/12/04 11:37:26;;;;;;;18.37;7.23;;;2.20;99.90;;;;;;5093503;28;20040;-81
2022/12/04 11:39:52;;;;;;;20.77;8.17;;;1.70;99.90;;;;;;5093268;28;20044;-81
2022/12/04 11:42:22;;;;;;;16.90;7.73;;;2.20;99.90;;;;;;5059944;28;20388;-81
2022/12/04 11:44:56;;;;;;;20.00;8.17;;;2.80;99.90;;;;;;5070451;28;20043;-82
2022/12/04 11:47:25;;;;;;;21.07;8.20;;;2.20;99.90;;;;;;5082711;28;20102;-82
2022/12/04 11:50:00;;;;;;;19.77;8.50;;;2.10;99.90;;;;;;5093266;28;20040;-81
2022/12/04 11:52:34;;;;;;;15.60;7.80;;;2.20;99.90;;;;;;5065169;28;20076;-81
2022/12/04 11:55:30;;;;;;;15.53;6.97;;;2.20;99.90;;;;;;5068502;28;20063;-81
2022/12/04 11:58:13;;;;;;;17.93;7.57;;;2.30;99.90;;;;;;5076687;28;20088;-81
2022/12/04 12:01:05;;;;;;;13.80;6.93;;;2.20;99.90;;;;;;5088167;28;20031;-80
2022/12/04 12:03:50;;;;;;;17.13;7.10;;;2.20;99.90;;;;;;5061748;28;20403;-80
2022/12/04 12:06:34;;;;;;;15.57;6.47;;;2.20;99.90;;;;;;5070061;28;20040;-80
2022/12/04 12:09:16;;;;;;;15.03;6.67;;;2.20;99.90;;;;;;5074352;28;20045;-80
2022/12/04 12:11:54;;;;;;;11.77;5.50;;;1.10;99.90;;;;;;5095817;28;20472;-80
2022/12/04 12:14:40;;;;;;;13.67;6.13;;;2.20;99.90;;;;;;5092257;28;20046;-80
2022/12/04 12:17:15;;;;;;;16.33;7.55;;;2.10;99.90;;;;;;5056070;28;20484;-80
2022/12/04 12:19:58;;;;;;;14.10;6.50;;;2.10;99.90;;;;;;5072459;28;20045;-81
2022/12/04 12:22:44;;;;;;;19.20;8.20;;;2.10;99.90;;;;;;5059734;28;20063;-81
2022/12/04 12:25:37;;;;;;;13.07;6.15;;;2.10;99.90;;;;;;5083229;28;20093;-81
2022/12/04 12:28:25;;;;;;;15.27;6.53;;;2.10;99.90;;;;;;5127999;27;20514;-82
2022/12/04 12:31:24;;;;;;;12.70;6.60;;;2.10;99.90;;;;;;5072276;28;20508;-82
2022/12/04 12:34:14;;;;;;;15.13;6.80;;;2.10;99.90;;;;;;5090902;28;20036;-80
2022/12/04 12:36:46;;;;;;;16.88;6.80;;;1.80;99.90;;;;;;5073137;28;20040;-81
2022/12/04 12:39:17;;;;;;;16.27;7.30;;;2.20;99.90;;;;;;5078320;28;20506;-80
2022/12/04 12:41:53;;;;;;;16.07;8.00;;;3.20;99.90;;;;;;5092637;28;20047;-81
2022/12/04 12:44:33;;;;;;;15.07;7.07;;;2.20;99.90;;;;;;5109345;28;20071;-80
2022/12/04 12:47:12;;;;;;;16.57;7.10;;;2.20;99.90;;;;;;5072790;28;20032;-80
2022/12/04 12:49:46;;;;;;;12.60;6.33;;;2.10;99.90;;;;;;5083639;28;20039;-82
2022/12/04 12:52:28;;;;;;;13.77;6.23;;;3.00;99.90;;;;;;5100554;28;20043;-82
2022/12/04 12:55:22;;;;;;;14.63;6.33;;;2.20;99.90;;;;;;5107316;28;20372;-82
2022/12/04 12:58:13;;;;;;;12.10;5.93;;;2.30;99.90;;;;;;5094767;28;20079;-82
2022/12/04 13:00:45;;;;;;;14.83;6.07;;;2.30;99.90;;;;;;5074558;28;20044;-82
2022/12/04 13:03:41;;;;;;;16.97;6.23;;;2.30;99.90;;;;;;5111874;28;20487;-82
2022/12/04 13:06:23;;;;;;;14.80;6.40;;;2.40;99.90;;;;;;5108224;28;20094;-82
2022/12/04 13:09:04;;;;;;;16.92;6.68;;;2.30;99.90;;;;;;5095034;28;20051;-81
2022/12/04 13:11:31;;;;;;;15.97;7.83;;;2.80;99.90;;;;;;5094886;28;20036;-81
2022/12/04 13:14:01;;;;;;;13.63;6.70;;;2.20;99.90;;;;;;5082998;28;20072;-81
2022/12/04 13:16:47;;;;;;;15.87;6.73;;;2.90;99.90;;;;;;5110533;28;20039;-81
2022/12/04 13:19:22;;;;;;;17.13;7.15;;;2.40;99.90;;;;;;5098816;27;20043;-81
2022/12/04 13:22:09;;;;;;;18.60;6.38;;;2.30;99.90;;;;;;5102056;27;20043;-81